createdAt,value
2023-03-07T00:00:22.962Z,16.75
2023-03-07T00:02:26.169Z,21.30
2023-03-07T00:04:29.297Z,17.15
2023-03-07T00:06:32.838Z,16.52
2023-03-07T00:08:36.294Z,16.75
2023-03-07T00:10:39.459Z,17.20
2023-03-07T00:12:42.592Z,15.45
2023-03-07T00:14:46.985Z,15.90
2023-03-07T00:16:51.312Z,16.13
2023-03-07T00:18:54.426Z,16.45
2023-03-07T00:21:00.508Z,16.38
2023-03-07T00:23:04.844Z,16.02
2023-03-07T00:25:08.890Z,18.02
2023-03-07T00:27:11.928Z,17.85
2023-03-07T00:29:15.136Z,19.48
2023-03-07T00:31:20.273Z,17.05
2023-03-07T00:33:23.333Z,15.88
2023-03-07T00:35:26.435Z,15.35
2023-03-07T00:37:30.787Z,16.13
2023-03-07T00:41:36.718Z,16.77
2023-03-07T00:43:39.968Z,17.50
2023-03-07T00:45:43.090Z,17.40
2023-03-07T00:47:50.329Z,15.20
2023-03-07T00:49:53.521Z,17.52
2023-03-07T00:51:57.000Z,17.48
2023-03-07T00:54:00.613Z,16.05
2023-03-07T00:56:06.612Z,14.63
2023-03-07T00:58:09.731Z,15.73
2023-03-07T01:00:13.838Z,14.13
2023-03-07T01:02:16.964Z,16.52
2023-03-07T01:04:21.564Z,16.00
2023-03-07T01:06:26.186Z,16.10
2023-03-07T01:08:30.881Z,15.65
2023-03-07T01:10:34.311Z,17.33
2023-03-07T01:12:37.491Z,16.88
2023-03-07T01:14:40.612Z,14.75
2023-03-07T01:16:43.771Z,15.60
2023-03-07T01:18:50.340Z,16.17
2023-03-07T01:20:55.466Z,15.48
2023-03-07T01:22:58.529Z,16.45
2023-03-07T01:25:02.121Z,16.35
2023-03-07T01:27:05.741Z,15.60
2023-03-07T01:29:09.753Z,13.48
2023-03-07T01:31:13.670Z,15.52
2023-03-07T01:33:17.463Z,14.65
2023-03-07T01:35:20.795Z,14.05
2023-03-07T01:37:25.338Z,15.48
2023-03-07T01:39:30.048Z,14.57
2023-03-07T01:41:38.730Z,16.38
2023-03-07T01:43:44.230Z,16.00
2023-03-07T01:46:30.339Z,17.33
2023-03-07T01:48:33.827Z,15.35
2023-03-07T01:50:37.094Z,15.63
2023-03-07T01:52:43.328Z,15.23
2023-03-07T01:54:50.458Z,14.63
2023-03-07T01:56:56.473Z,15.60
2023-03-07T01:58:59.694Z,17.95
2023-03-07T02:01:02.852Z,13.38
2023-03-07T02:03:11.603Z,15.40
2023-03-07T02:05:21.622Z,15.60
2023-03-07T02:07:26.726Z,15.35
2023-03-07T02:09:33.700Z,17.55
2023-03-07T02:11:36.902Z,17.88
2023-03-07T02:13:40.385Z,16.20
2023-03-07T02:15:44.136Z,15.27
2023-03-07T02:17:47.782Z,15.65
2023-03-07T02:19:59.846Z,16.10
2023-03-07T02:22:10.313Z,15.77
2023-03-07T02:24:20.067Z,16.05
2023-03-07T02:26:31.361Z,14.82
2023-03-07T02:28:36.171Z,13.45
2023-03-07T02:30:39.872Z,17.25
2023-03-07T02:32:42.974Z,13.95
2023-03-07T02:34:46.141Z,15.82
2023-03-07T02:36:56.061Z,16.83
2023-03-07T02:38:59.220Z,18.25
2023-03-07T02:41:03.734Z,17.25
2023-03-07T02:43:09.661Z,16.80
2023-03-07T02:45:19.050Z,18.42
2023-03-07T02:47:22.240Z,15.05
2023-03-07T02:49:25.547Z,16.50
2023-03-07T02:51:28.549Z,18.40
2023-03-07T02:53:32.247Z,17.33
2023-03-07T02:55:35.362Z,15.40
2023-03-07T02:57:40.863Z,16.35
2023-03-07T02:59:44.100Z,15.52
2023-03-07T03:01:48.605Z,16.45
2023-03-07T03:03:52.099Z,18.98
2023-03-07T03:05:55.348Z,19.38
2023-03-07T03:07:58.448Z,18.65
2023-03-07T03:10:01.461Z,16.80
2023-03-07T03:12:06.715Z,21.83
2023-03-07T03:14:10.835Z,21.13
2023-03-07T03:16:14.054Z,19.00
2023-03-07T03:18:19.024Z,21.63
2023-03-07T03:20:22.571Z,20.45
2023-03-07T03:22:25.845Z,21.00
2023-03-07T03:24:28.944Z,18.63
2023-03-07T03:26:32.423Z,17.25
2023-03-07T03:28:36.521Z,16.13
2023-03-07T03:30:40.403Z,17.65
2023-03-07T03:32:43.832Z,17.70
2023-03-07T03:34:51.063Z,15.82
2023-03-07T03:36:54.231Z,16.48
2023-03-07T03:39:00.498Z,15.82
2023-03-07T03:41:07.576Z,17.00
2023-03-07T03:43:12.567Z,14.57
2023-03-07T03:45:15.854Z,13.70
2023-03-07T03:47:19.496Z,14.05
2023-03-07T03:49:22.708Z,16.73
2023-03-07T03:51:29.367Z,16.60
2023-03-07T03:53:33.420Z,15.98
2023-03-07T03:55:36.406Z,16.23
2023-03-07T03:57:40.198Z,15.98
2023-03-07T03:59:43.334Z,15.00
2023-03-07T04:01:46.527Z,14.88
2023-03-07T04:03:51.397Z,16.15
2023-03-07T04:05:54.640Z,14.82
2023-03-07T04:07:59.161Z,16.27
2023-03-07T04:10:02.626Z,13.25
2023-03-07T04:12:06.850Z,19.58
2023-03-07T04:14:10.447Z,17.15
2023-03-07T04:16:13.965Z,15.02
2023-03-07T04:18:17.660Z,17.83
2023-03-07T04:20:21.656Z,14.18
2023-03-07T04:22:24.862Z,14.98
2023-03-07T04:24:29.353Z,14.70
2023-03-07T04:26:32.472Z,17.88
2023-03-07T04:28:46.665Z,15.25
2023-03-07T04:30:54.169Z,15.30
2023-03-07T04:32:57.500Z,14.50
2023-03-07T04:35:03.379Z,15.52
2023-03-07T04:37:06.527Z,15.32
2023-03-07T04:39:09.763Z,16.60
2023-03-07T04:41:16.399Z,13.82
2023-03-07T04:43:21.666Z,15.52
2023-03-07T04:45:25.014Z,13.07
2023-03-07T04:47:28.234Z,14.30
2023-03-07T04:49:31.470Z,14.70
2023-03-07T04:51:34.736Z,14.85
2023-03-07T04:53:37.904Z,15.07
2023-03-07T04:55:41.093Z,14.48
2023-03-07T04:57:46.686Z,14.45
2023-03-07T04:59:50.593Z,17.05
2023-03-07T05:01:53.714Z,16.13
2023-03-07T05:03:56.976Z,15.50
2023-03-07T05:06:03.205Z,13.23
2023-03-07T05:08:07.067Z,14.68
2023-03-07T05:10:11.843Z,16.92
2023-03-07T05:12:14.948Z,14.25
2023-03-07T05:14:19.392Z,17.83
2023-03-07T05:16:22.445Z,17.75
2023-03-07T05:18:26.556Z,14.20
2023-03-07T05:20:31.063Z,17.85
2023-03-07T05:22:36.788Z,17.27
2023-03-07T05:24:40.082Z,15.50
2023-03-07T05:26:43.486Z,16.77
2023-03-07T05:28:47.235Z,15.93
2023-03-07T05:30:51.738Z,17.65
2023-03-07T05:32:54.945Z,20.55
2023-03-07T05:34:58.135Z,15.43
2023-03-07T05:37:01.473Z,15.98
2023-03-07T05:39:08.180Z,16.35
2023-03-07T05:41:12.884Z,15.77
2023-03-07T05:43:19.863Z,15.38
2023-03-07T05:45:23.336Z,15.88
2023-03-07T05:47:28.110Z,14.02
2023-03-07T05:49:31.471Z,14.75
2023-03-07T05:51:36.584Z,14.80
2023-03-07T05:53:39.695Z,17.85
2023-03-07T05:55:42.888Z,17.50
2023-03-07T05:57:46.023Z,20.40
2023-03-07T05:59:49.184Z,17.00
2023-03-07T06:01:52.503Z,17.02
2023-03-07T06:03:57.213Z,15.55
2023-03-07T06:06:01.752Z,16.40
2023-03-07T06:08:05.173Z,14.85
2023-03-07T06:10:09.686Z,16.45
2023-03-07T06:12:13.067Z,26.35
2023-03-07T06:14:16.263Z,16.98
2023-03-07T06:16:19.402Z,17.08
2023-03-07T06:18:23.351Z,16.25
2023-03-07T06:20:28.066Z,20.65
2023-03-07T06:22:34.642Z,18.63
2023-03-07T06:24:47.154Z,16.58
2023-03-07T06:26:50.767Z,17.40
2023-03-07T06:28:56.819Z,18.10
2023-03-07T06:31:02.199Z,18.05
2023-03-07T06:33:05.841Z,13.82
2023-03-07T06:35:10.274Z,14.52
2023-03-07T06:37:15.276Z,18.17
2023-03-07T06:39:22.072Z,18.55
2023-03-07T06:41:28.766Z,15.45
2023-03-07T06:43:34.763Z,15.40
2023-03-07T06:45:38.866Z,18.58
2023-03-07T06:47:42.232Z,16.75
2023-03-07T06:49:46.998Z,17.85
2023-03-07T06:51:50.214Z,16.70
2023-03-07T06:53:54.930Z,19.33
2023-03-07T06:55:58.264Z,20.25
2023-03-07T06:58:01.380Z,15.55
2023-03-07T07:00:06.776Z,17.30
2023-03-07T07:02:11.952Z,17.55
2023-03-07T07:04:15.356Z,16.98
2023-03-07T07:06:19.282Z,16.73
2023-03-07T07:08:23.825Z,20.58
2023-03-07T07:10:28.474Z,14.15
2023-03-07T07:12:31.759Z,15.48
2023-03-07T07:14:35.566Z,16.25
2023-03-07T07:16:38.967Z,17.33
2023-03-07T07:18:42.815Z,17.65
2023-03-07T07:20:45.975Z,16.80
2023-03-07T07:22:49.039Z,15.50
2023-03-07T07:24:52.140Z,14.10
2023-03-07T07:26:56.864Z,13.48
2023-03-07T07:28:59.974Z,14.90
2023-03-07T07:31:04.105Z,15.55
2023-03-07T07:33:08.180Z,14.95
2023-03-07T07:35:11.510Z,17.08
2023-03-07T07:37:14.638Z,17.85
2023-03-07T07:39:18.139Z,14.88
2023-03-07T07:41:23.112Z,21.63
2023-03-07T07:43:30.384Z,14.60
2023-03-07T07:45:43.366Z,13.68
2023-03-07T07:47:51.211Z,16.08
2023-03-07T07:49:55.059Z,15.05
2023-03-07T07:51:58.410Z,16.83
2023-03-07T07:54:01.677Z,19.38
2023-03-07T07:56:05.095Z,14.20
2023-03-07T07:58:08.280Z,15.10
2023-03-07T08:00:19.396Z,12.65
2023-03-07T08:02:22.534Z,16.73
2023-03-07T08:04:25.889Z,13.90
2023-03-07T08:06:29.671Z,17.25
2023-03-07T08:08:32.971Z,13.52
2023-03-07T08:10:36.463Z,16.90
2023-03-07T08:12:39.628Z,13.77
2023-03-07T08:14:42.782Z,15.20
2023-03-07T08:16:47.476Z,13.63
2023-03-07T08:18:51.745Z,20.58
2023-03-07T08:20:55.014Z,13.52
2023-03-07T08:22:58.292Z,16.58
2023-03-07T08:25:01.478Z,12.10
2023-03-07T08:27:05.107Z,15.70
2023-03-07T08:29:08.302Z,14.40
2023-03-07T08:31:13.344Z,22.30
2023-03-07T08:33:17.827Z,14.73
2023-03-07T08:35:21.326Z,13.65
2023-03-07T08:37:24.442Z,14.75
2023-03-07T08:39:27.753Z,14.50
2023-03-07T08:41:30.978Z,18.50
2023-03-07T08:43:36.244Z,15.27
2023-03-07T08:45:41.370Z,14.23
2023-03-07T08:47:44.724Z,14.35
2023-03-07T08:49:49.192Z,12.75
2023-03-07T08:51:52.206Z,14.15
2023-03-07T08:53:55.442Z,13.43
2023-03-07T08:55:58.544Z,12.35
2023-03-07T08:58:01.840Z,13.05
2023-03-07T09:00:08.131Z,15.85
2023-03-07T09:02:11.750Z,13.93
2023-03-07T09:04:15.293Z,10.18
2023-03-07T09:06:21.097Z,11.90
2023-03-07T09:08:24.084Z,11.98
2023-03-07T09:10:27.543Z,12.50
2023-03-07T09:12:30.702Z,12.43
2023-03-07T09:14:33.820Z,11.88
2023-03-07T09:16:37.128Z,12.40
2023-03-07T09:18:40.345Z,11.60
2023-03-07T09:20:43.463Z,11.50
2023-03-07T09:22:48.022Z,12.18
2023-03-07T09:24:51.207Z,18.13
2023-03-07T09:26:54.364Z,11.05
2023-03-07T09:28:57.429Z,15.70
2023-03-07T09:31:00.554Z,12.95
2023-03-07T09:33:04.155Z,12.45
2023-03-07T09:35:07.884Z,11.38
2023-03-07T09:37:11.529Z,11.80
2023-03-07T09:39:16.584Z,12.25
2023-03-07T09:41:42.888Z,12.20
2023-03-07T09:43:50.142Z,13.43
2023-03-07T09:46:25.685Z,11.77
2023-03-07T09:49:00.122Z,19.15
2023-03-07T09:51:11.920Z,11.55
2023-03-07T09:53:21.437Z,14.88
2023-03-07T09:55:26.499Z,11.20
2023-03-07T09:57:32.733Z,11.32
2023-03-07T09:59:37.651Z,10.35
2023-03-07T10:01:41.662Z,9.30
2023-03-07T10:03:52.635Z,9.48
2023-03-07T10:05:58.838Z,10.18
2023-03-07T10:08:02.709Z,14.45
2023-03-07T10:10:08.630Z,9.60
2023-03-07T10:12:37.214Z,10.45
2023-03-07T10:14:52.056Z,8.45
2023-03-07T10:17:01.388Z,7.75
2023-03-07T10:19:11.546Z,11.20
2023-03-07T10:21:19.958Z,8.55
2023-03-07T10:23:41.970Z,10.02
2023-03-07T10:25:49.302Z,8.68
2023-03-07T10:28:00.910Z,9.98
2023-03-07T10:30:15.638Z,12.00
2023-03-07T10:32:25.267Z,12.20
2023-03-07T10:34:32.393Z,9.38
2023-03-07T10:36:39.754Z,9.45
2023-03-07T10:38:46.307Z,8.45
2023-03-07T10:40:51.942Z,10.60
2023-03-07T10:42:56.745Z,9.20
2023-03-07T10:45:00.058Z,8.18
2023-03-07T10:47:03.443Z,7.57
2023-03-07T10:49:11.014Z,9.23
2023-03-07T10:51:29.279Z,8.30
2023-03-07T10:53:35.266Z,9.43
2023-03-07T10:55:42.959Z,10.55
2023-03-07T10:57:46.119Z,7.75
2023-03-07T10:59:51.954Z,8.32
2023-03-07T11:01:56.516Z,7.82
2023-03-07T11:04:01.740Z,6.88
2023-03-07T11:06:05.568Z,8.23
2023-03-07T11:08:22.717Z,9.57
2023-03-07T11:10:28.925Z,7.72
2023-03-07T11:12:32.116Z,7.38
2023-03-07T11:14:47.568Z,7.72
2023-03-07T11:16:54.321Z,7.72
2023-03-07T11:18:58.312Z,8.30
2023-03-07T11:21:01.455Z,10.30
2023-03-07T11:23:15.954Z,7.88
2023-03-07T11:25:22.973Z,10.38
2023-03-07T11:27:31.757Z,9.90
2023-03-07T11:29:34.930Z,9.73
2023-03-07T11:31:44.144Z,8.80
2023-03-07T11:34:00.164Z,9.65
2023-03-07T11:36:05.494Z,9.27
2023-03-07T11:38:13.648Z,10.27
2023-03-07T11:40:23.364Z,10.75
2023-03-07T11:42:31.371Z,8.90
2023-03-07T11:44:41.359Z,8.82
2023-03-07T11:46:58.971Z,10.35
2023-03-07T11:49:15.260Z,8.65
2023-03-07T11:51:42.629Z,11.80
2023-03-07T11:54:01.156Z,10.25
2023-03-07T11:56:19.346Z,9.07
2023-03-07T11:58:34.812Z,11.63
2023-03-07T12:00:48.443Z,11.55
2023-03-07T12:03:16.813Z,8.73
2023-03-07T12:05:34.059Z,9.27
2023-03-07T12:07:52.758Z,9.57
2023-03-07T12:10:02.196Z,10.60
2023-03-07T12:12:29.930Z,8.93
2023-03-07T12:14:40.971Z,9.60
2023-03-07T12:16:54.118Z,9.20
2023-03-07T12:19:09.791Z,9.63
2023-03-07T12:21:24.396Z,10.68
2023-03-07T12:23:33.956Z,11.05
2023-03-07T12:25:38.568Z,9.27
2023-03-07T12:27:45.250Z,9.25
2023-03-07T12:29:53.171Z,8.88
2023-03-07T12:32:00.494Z,10.45
2023-03-07T12:34:06.340Z,10.30
2023-03-07T12:36:13.079Z,9.15
2023-03-07T12:38:26.981Z,11.05
2023-03-07T12:40:35.590Z,8.70
2023-03-07T12:42:47.165Z,8.00
2023-03-07T12:44:51.548Z,9.00
2023-03-07T12:47:02.809Z,9.48
2023-03-07T12:49:16.012Z,9.30
2023-03-07T12:51:21.745Z,10.30
2023-03-07T12:53:33.874Z,9.05
2023-03-07T12:55:40.604Z,9.10
2023-03-07T12:57:45.890Z,10.85
2023-03-07T12:59:51.699Z,9.05
2023-03-07T13:02:03.353Z,7.30
2023-03-07T13:04:10.186Z,8.45
2023-03-07T13:06:17.960Z,9.02
2023-03-07T13:08:23.578Z,7.95
2023-03-07T13:10:28.435Z,7.97
2023-03-07T13:12:33.870Z,8.20
2023-03-07T13:14:40.803Z,9.18
2023-03-07T13:16:45.678Z,7.90
2023-03-07T13:18:48.938Z,8.18
2023-03-07T13:21:27.696Z,9.05
2023-03-07T13:23:31.689Z,8.43
2023-03-07T13:26:03.690Z,10.45
2023-03-07T13:28:33.555Z,6.72
2023-03-07T13:30:36.767Z,8.07
2023-03-07T13:32:59.818Z,8.63
2023-03-07T13:35:03.167Z,9.27
2023-03-07T13:37:48.905Z,10.50
2023-03-07T13:40:03.293Z,8.40
2023-03-07T13:42:45.398Z,10.90
2023-03-07T13:44:48.641Z,9.13
2023-03-07T13:46:55.708Z,8.35
2023-03-07T13:49:03.923Z,11.32
2023-03-07T13:51:10.429Z,8.05
2023-03-07T13:53:15.720Z,9.00
2023-03-07T13:55:29.230Z,9.80
2023-03-07T13:57:41.726Z,9.85
2023-03-07T13:59:49.586Z,10.88
2023-03-07T14:01:58.256Z,9.90
2023-03-07T14:04:07.324Z,10.90
2023-03-07T14:06:14.066Z,8.48
2023-03-07T14:08:17.306Z,7.70
2023-03-07T14:10:25.117Z,7.50
2023-03-07T14:12:37.141Z,11.63
2023-03-07T14:14:53.242Z,8.15
2023-03-07T14:17:15.007Z,7.40
2023-03-07T14:19:31.771Z,9.88
2023-03-07T14:21:45.856Z,9.02
2023-03-07T14:24:07.224Z,8.57
2023-03-07T14:26:14.548Z,7.80
2023-03-07T14:28:27.799Z,8.73
2023-03-07T14:30:34.333Z,8.45
2023-03-07T14:32:37.806Z,9.68
2023-03-07T14:34:50.674Z,9.05
2023-03-07T14:36:55.817Z,10.02
2023-03-07T14:39:02.267Z,9.10
2023-03-07T14:41:31.664Z,11.32
2023-03-07T14:43:43.240Z,7.68
2023-03-07T14:45:52.123Z,11.32
2023-03-07T14:48:14.508Z,7.78
2023-03-07T14:50:22.081Z,8.98
2023-03-07T14:52:31.226Z,9.02
2023-03-07T14:54:35.587Z,8.38
2023-03-07T14:56:39.193Z,7.05
2023-03-07T14:58:51.499Z,5.60
2023-03-07T15:01:03.837Z,7.30
2023-03-07T15:03:12.881Z,7.30
2023-03-07T15:05:17.594Z,7.63
2023-03-07T15:07:23.319Z,7.32
2023-03-07T15:09:29.940Z,7.53
2023-03-07T15:11:36.223Z,6.47
2023-03-07T15:13:45.800Z,9.65
2023-03-07T15:15:50.878Z,7.40
2023-03-07T15:17:56.640Z,9.40
2023-03-07T15:20:01.518Z,16.70
2023-03-07T15:22:12.914Z,12.77
2023-03-07T15:24:19.041Z,10.40
2023-03-07T15:26:24.070Z,9.88
2023-03-07T15:28:30.356Z,9.38
2023-03-07T15:30:35.166Z,9.35
2023-03-07T15:32:40.043Z,6.40
2023-03-07T15:34:45.069Z,7.47
2023-03-07T15:36:48.382Z,7.57
2023-03-07T15:38:53.128Z,6.25
2023-03-07T15:40:56.397Z,5.75
2023-03-07T15:43:02.233Z,7.60
2023-03-07T15:45:08.363Z,5.13
2023-03-07T15:47:17.081Z,9.20
2023-03-07T15:49:23.326Z,7.03
2023-03-07T15:51:35.732Z,6.00
2023-03-07T15:53:40.352Z,6.43
2023-03-07T15:55:57.645Z,7.18
2023-03-07T15:58:02.351Z,10.02
2023-03-07T16:00:08.322Z,8.85
2023-03-07T16:02:41.439Z,8.60
2023-03-07T16:04:44.713Z,8.13
2023-03-07T16:06:49.331Z,6.53
2023-03-07T16:08:52.576Z,8.15
2023-03-07T16:10:59.113Z,9.63
2023-03-07T16:13:03.169Z,7.47
2023-03-07T16:15:07.316Z,7.00
2023-03-07T16:17:16.339Z,7.68
2023-03-07T16:19:19.397Z,8.85
2023-03-07T16:21:22.539Z,8.02
2023-03-07T16:23:28.774Z,9.68
2023-03-07T16:25:32.956Z,10.30
2023-03-07T16:27:36.078Z,8.73
2023-03-07T16:29:39.218Z,7.60
2023-03-07T16:31:42.444Z,8.23
2023-03-07T16:33:46.431Z,7.20
2023-03-07T16:35:49.560Z,11.98
2023-03-07T16:37:53.065Z,8.00
2023-03-07T16:39:57.488Z,10.38
2023-03-07T16:42:01.100Z,10.43
2023-03-07T16:44:04.744Z,14.15
2023-03-07T16:46:12.602Z,7.75
2023-03-07T16:48:16.894Z,7.80
2023-03-07T16:50:21.539Z,9.15
2023-03-07T16:52:25.812Z,7.15
2023-03-07T16:54:29.098Z,11.45
2023-03-07T16:56:35.718Z,8.90
2023-03-07T16:58:38.955Z,9.20
2023-03-07T17:00:42.117Z,8.95
2023-03-07T17:02:45.671Z,11.45
2023-03-07T17:04:48.993Z,13.10
2023-03-07T17:07:03.813Z,13.10
2023-03-07T17:09:09.316Z,12.88
2023-03-07T17:11:18.910Z,11.15
2023-03-07T17:13:23.411Z,9.77
2023-03-07T17:15:30.685Z,11.32
2023-03-07T17:17:36.619Z,9.35
2023-03-07T17:19:39.715Z,13.88
2023-03-07T17:21:43.019Z,12.02
2023-03-07T17:23:46.846Z,9.88
2023-03-07T17:25:50.467Z,9.18
2023-03-07T17:27:56.534Z,10.30
2023-03-07T17:30:01.178Z,10.55
2023-03-07T17:32:04.815Z,9.48
2023-03-07T17:34:07.960Z,12.40
2023-03-07T17:36:12.256Z,10.52
2023-03-07T17:38:15.667Z,11.15
2023-03-07T17:40:18.872Z,9.20
2023-03-07T17:42:21.962Z,9.32
2023-03-07T17:44:25.272Z,10.63
2023-03-07T17:46:30.062Z,10.05
2023-03-07T17:48:33.180Z,10.55
2023-03-07T17:50:36.443Z,10.80
2023-03-07T17:52:40.083Z,12.85
2023-03-07T17:54:45.975Z,9.27
2023-03-07T17:56:49.253Z,9.00
2023-03-07T17:58:52.785Z,8.45
2023-03-07T18:00:55.930Z,10.23
2023-03-07T18:03:01.873Z,10.68
2023-03-07T18:05:05.272Z,9.70
2023-03-07T18:07:08.490Z,9.10
2023-03-07T18:09:13.462Z,8.65
2023-03-07T18:11:16.842Z,9.60
2023-03-07T18:13:21.810Z,9.20
2023-03-07T18:15:26.367Z,9.05
2023-03-07T18:17:38.464Z,8.65
2023-03-07T18:19:50.060Z,10.43
2023-03-07T18:21:53.267Z,9.35
2023-03-07T18:23:56.600Z,7.75
2023-03-07T18:25:59.870Z,9.75
2023-03-07T18:28:04.400Z,10.60
2023-03-07T18:30:09.310Z,8.27
2023-03-07T18:32:12.768Z,12.02
2023-03-07T18:34:16.726Z,28.98
2023-03-07T18:36:23.501Z,10.00
2023-03-07T18:38:27.288Z,8.70
2023-03-07T18:40:30.431Z,9.10
2023-03-07T18:42:34.193Z,9.65
2023-03-07T18:44:40.061Z,8.80
2023-03-07T18:46:43.993Z,9.68
2023-03-07T18:48:47.870Z,9.73
2023-03-07T18:50:57.255Z,20.27
2023-03-07T18:53:01.738Z,18.67
2023-03-07T18:55:05.393Z,14.55
2023-03-07T18:57:08.527Z,16.33
2023-03-07T18:59:11.798Z,8.05
2023-03-07T19:01:16.617Z,9.85
2023-03-07T19:03:19.938Z,9.40
2023-03-07T19:05:23.057Z,10.00
2023-03-07T19:07:27.934Z,8.32
2023-03-07T19:09:32.439Z,11.38
2023-03-07T19:11:36.526Z,11.25
2023-03-07T19:13:40.063Z,13.18
2023-03-07T19:15:45.005Z,9.10
2023-03-07T19:17:48.145Z,12.65
2023-03-07T19:19:53.941Z,9.07
2023-03-07T19:21:57.111Z,9.35
2023-03-07T19:24:01.624Z,11.00
2023-03-07T19:26:07.474Z,9.77
2023-03-07T19:28:12.286Z,10.10
2023-03-07T19:30:16.079Z,12.93
2023-03-07T19:32:19.304Z,9.20
2023-03-07T19:34:22.435Z,8.38
2023-03-07T19:36:27.464Z,8.35
2023-03-07T19:38:30.784Z,11.80
2023-03-07T19:40:33.891Z,7.60
2023-03-07T19:42:38.381Z,8.95
2023-03-07T19:44:41.668Z,11.32
2023-03-07T19:46:47.114Z,9.73
2023-03-07T19:48:50.579Z,13.10
2023-03-07T19:50:54.604Z,8.25
2023-03-07T19:52:59.112Z,8.85
2023-03-07T19:55:02.327Z,9.63
2023-03-07T19:57:06.403Z,9.52
2023-03-07T19:59:11.886Z,11.05
2023-03-07T20:01:16.779Z,8.95
2023-03-07T20:03:21.028Z,11.35
2023-03-07T20:05:24.537Z,8.50
2023-03-07T20:07:28.373Z,8.80
2023-03-07T20:09:31.659Z,14.48
2023-03-07T20:11:35.603Z,10.02
2023-03-07T20:13:39.310Z,8.60
2023-03-07T20:15:51.768Z,10.07
2023-03-07T20:17:54.952Z,9.85
2023-03-07T20:19:58.348Z,10.65
2023-03-07T20:22:01.921Z,10.85
2023-03-07T20:24:05.904Z,9.70
2023-03-07T20:26:10.840Z,9.38
2023-03-07T20:28:13.997Z,10.60
2023-03-07T20:30:17.686Z,7.97
2023-03-07T20:32:22.406Z,10.35
2023-03-07T20:34:28.857Z,8.90
2023-03-07T20:36:33.766Z,11.00
2023-03-07T20:38:38.528Z,10.32
2023-03-07T20:40:42.193Z,9.60
2023-03-07T20:42:46.535Z,11.60
2023-03-07T20:44:49.637Z,11.52
2023-03-07T20:46:52.760Z,10.00
2023-03-07T20:48:58.220Z,9.55
2023-03-07T20:51:06.235Z,9.98
2023-03-07T20:53:09.547Z,9.93
2023-03-07T20:55:12.854Z,10.88
2023-03-07T20:57:16.051Z,9.07
2023-03-07T20:59:20.453Z,8.48
2023-03-07T21:01:24.777Z,8.40
2023-03-07T21:03:30.745Z,11.57
2023-03-07T21:05:35.426Z,7.45
2023-03-07T21:07:38.600Z,7.25
2023-03-07T21:09:42.087Z,7.80
2023-03-07T21:11:47.064Z,7.13
2023-03-07T21:13:50.592Z,8.98
2023-03-07T21:15:54.993Z,8.20
2023-03-07T21:17:58.507Z,6.63
2023-03-07T21:20:02.006Z,7.25
2023-03-07T21:22:06.860Z,7.40
2023-03-07T21:24:12.399Z,7.68
2023-03-07T21:26:17.756Z,6.75
2023-03-07T21:28:21.152Z,7.50
2023-03-07T21:30:24.429Z,5.43
2023-03-07T21:32:27.553Z,8.00
2023-03-07T21:34:30.732Z,5.72
2023-03-07T21:36:34.593Z,7.10
2023-03-07T21:38:39.965Z,8.18
2023-03-07T21:40:43.254Z,6.82
2023-03-07T21:42:48.990Z,6.20
2023-03-07T21:44:52.249Z,7.22
2023-03-07T21:46:55.314Z,6.85
2023-03-07T21:48:59.778Z,6.07
2023-03-07T21:51:03.554Z,7.05
2023-03-07T21:53:06.792Z,5.97
2023-03-07T21:55:11.844Z,6.07
2023-03-07T21:57:15.379Z,6.25
2023-03-07T21:59:18.598Z,6.15
2023-03-07T22:01:27.610Z,5.97
2023-03-07T22:03:30.726Z,6.95
2023-03-07T22:05:33.812Z,6.90
2023-03-07T22:07:36.990Z,7.53
2023-03-07T22:09:40.279Z,5.78
2023-03-07T22:11:44.779Z,5.93
2023-03-07T22:13:48.016Z,6.38
2023-03-07T22:15:58.753Z,6.03
2023-03-07T22:18:01.812Z,6.40
2023-03-07T22:20:14.349Z,6.22
2023-03-07T22:22:17.562Z,6.22
2023-03-07T22:24:20.739Z,7.00
2023-03-07T22:26:24.014Z,8.82
2023-03-07T22:28:28.526Z,6.80
2023-03-07T22:30:34.940Z,6.60
2023-03-07T22:32:38.127Z,9.13
2023-03-07T22:34:41.362Z,6.47
2023-03-07T22:36:44.643Z,7.32
2023-03-07T22:38:48.012Z,7.75
2023-03-07T22:40:53.562Z,7.07
2023-03-07T22:42:56.882Z,5.13
2023-03-07T22:45:01.571Z,7.40
2023-03-07T22:47:05.062Z,7.47
2023-03-07T22:49:08.208Z,5.88
2023-03-07T22:51:18.180Z,6.63
2023-03-07T22:53:21.402Z,5.95
2023-03-07T22:55:24.484Z,7.00
2023-03-07T22:57:27.621Z,11.02
2023-03-07T22:59:30.843Z,6.45
2023-03-07T23:01:35.406Z,6.90
2023-03-07T23:03:38.840Z,7.63
2023-03-07T23:05:43.086Z,7.55
2023-03-07T23:07:48.632Z,5.55
2023-03-07T23:09:52.001Z,7.65
2023-03-07T23:11:55.078Z,6.72
2023-03-07T23:13:58.618Z,7.20
2023-03-07T23:16:05.387Z,12.02
2023-03-07T23:18:10.331Z,8.45
2023-03-07T23:20:14.862Z,6.82
2023-03-07T23:22:18.006Z,6.80
2023-03-07T23:24:21.038Z,8.20
2023-03-07T23:26:25.983Z,7.90
2023-03-07T23:28:29.618Z,8.70
2023-03-07T23:30:32.877Z,8.95
2023-03-07T23:32:36.388Z,8.30
2023-03-07T23:34:41.431Z,6.53
2023-03-07T23:36:44.651Z,7.32
2023-03-07T23:38:47.822Z,9.70
2023-03-07T23:40:51.020Z,8.48
2023-03-07T23:42:56.202Z,8.95
2023-03-07T23:44:59.544Z,9.18
2023-03-07T23:47:02.711Z,9.18
2023-03-07T23:49:06.182Z,8.75
2023-03-07T23:51:11.050Z,9.45
2023-03-07T23:53:14.209Z,10.98
2023-03-07T23:55:17.822Z,10.10
2023-03-07T23:57:20.951Z,8.95
2023-03-07T23:59:23.977Z,11.27
